Mahto, South Dakota
Current Conditions -  °F | °C
As of 3:52 AM on Monday 22 Dec 2014 (Local Time) from KMBG Reporting Station
Haze Haze  
Wind Chill: 30°   Ceiling: 600
Heat Index: 30°   Visibility: 3mi
Dew Point: 28°   Wind: 0mph
Humidity: 92%   Direction: NA
Pressure: 29.4"   Gusts: NA
Location:  45.76°N, 100.68°W
Report Text: KMBG 221052Z AUTO 00000KT 3SM BR OVC006 M01/M02 A2940 RMK AO2 UPB09E38 SLP972 P0000 I1000 T10111022
Loading
Personal Weather Stations






























Interactive Weather Map New forecast layout! Learn more

10-Day Weather Forecast

Advertisements
Track Severe Weather on mobile